createdAt,value
2018-06-21T00:00:33.881Z,19.26
2018-06-21T00:01:33.911Z,19.17
2018-06-21T00:02:33.935Z,19.17
2018-06-21T00:03:33.964Z,19.07
2018-06-21T00:04:34.023Z,19.07
2018-06-21T00:05:34.018Z,19.07
2018-06-21T00:06:34.047Z,19.35
2018-06-21T00:07:34.074Z,19.07
2018-06-21T00:08:34.101Z,19.17
2018-06-21T00:09:34.128Z,19.26
2018-06-21T00:10:34.157Z,19.17
2018-06-21T00:11:34.185Z,19.26
2018-06-21T00:12:34.210Z,19.26
2018-06-21T00:13:34.240Z,19.17
2018-06-21T00:14:34.266Z,19.17
2018-06-21T00:15:34.295Z,19.07
2018-06-21T00:16:34.321Z,19.26
2018-06-21T00:17:34.350Z,19.17
2018-06-21T00:18:34.414Z,19.17
2018-06-21T00:19:34.406Z,19.26
2018-06-21T00:20:34.432Z,19.26
2018-06-21T00:21:34.460Z,19.17
2018-06-21T00:22:34.489Z,19.07
2018-06-21T00:23:34.529Z,19.45
2018-06-21T00:24:34.543Z,19.45
2018-06-21T00:25:34.572Z,19.35
2018-06-21T00:26:34.599Z,19.45
2018-06-21T00:27:34.627Z,19.45
2018-06-21T00:28:34.689Z,19.26
2018-06-21T00:29:34.683Z,19.45
2018-06-21T00:30:34.710Z,19.07
2018-06-21T00:31:34.738Z,19.45
2018-06-21T00:32:34.808Z,19.45
2018-06-21T00:33:34.822Z,19.07
2018-06-21T00:34:34.820Z,19.35
2018-06-21T00:35:34.849Z,19.35
2018-06-21T00:36:34.876Z,19.35
2018-06-21T00:37:34.901Z,19.07
2018-06-21T00:38:34.929Z,19.07
2018-06-21T00:39:34.958Z,19.45
2018-06-21T00:40:34.985Z,19.17
2018-06-21T00:41:35.013Z,19.07
2018-06-21T00:42:35.039Z,19.35
2018-06-21T00:43:35.068Z,19.26
2018-06-21T00:44:35.094Z,19.26
2018-06-21T00:45:35.130Z,19.17
2018-06-21T00:46:35.149Z,19.35
2018-06-21T00:47:35.177Z,19.17
2018-06-21T00:48:35.206Z,19.35
2018-06-21T00:49:35.232Z,19.26
2018-06-21T00:50:35.261Z,19.35
2018-06-21T00:51:35.289Z,19.35
2018-06-21T00:52:35.316Z,19.26
2018-06-21T00:53:35.342Z,19.35
2018-06-21T00:54:35.371Z,19.07
2018-06-21T00:55:35.420Z,19.17
2018-06-21T00:56:35.428Z,19.35
2018-06-21T00:57:35.454Z,19.35
2018-06-21T00:58:35.481Z,19.35
2018-06-21T00:59:35.508Z,19.17
2018-06-21T01:00:35.534Z,19.26
2018-06-21T01:01:35.562Z,19.17
2018-06-21T01:02:35.591Z,19.17
2018-06-21T01:03:35.619Z,19.17
2018-06-21T01:04:35.647Z,19.17
2018-06-21T01:05:35.687Z,19.17
2018-06-21T01:06:35.702Z,19.17
2018-06-21T01:07:35.728Z,19.07
2018-06-21T01:08:35.755Z,19.17
2018-06-21T01:09:35.784Z,19.26
2018-06-21T01:10:35.812Z,19.17
2018-06-21T01:11:35.844Z,19.17
2018-06-21T01:12:35.868Z,19.07
2018-06-21T01:13:35.895Z,19.17
2018-06-21T01:14:35.920Z,19.35
2018-06-21T01:15:35.997Z,19.45
2018-06-21T01:16:35.976Z,19.17
2018-06-21T01:17:36.005Z,19.26
2018-06-21T01:18:36.047Z,19.35
2018-06-21T01:19:36.061Z,19.17
2018-06-21T01:20:36.087Z,19.45
2018-06-21T01:21:36.113Z,18.97
2018-06-21T01:22:36.143Z,18.97
2018-06-21T01:23:36.183Z,18.87
2018-06-21T01:24:36.198Z,19.35
2018-06-21T01:25:36.228Z,19.26
2018-06-21T01:26:36.251Z,19.35
2018-06-21T01:27:36.280Z,18.97
2018-06-21T01:28:36.306Z,19.07
2018-06-21T01:29:36.363Z,18.97
2018-06-21T01:30:36.363Z,19.07
2018-06-21T01:31:36.392Z,19.07
2018-06-21T01:32:36.418Z,19.17
2018-06-21T01:33:36.445Z,19.07
2018-06-21T01:34:36.473Z,18.59
2018-06-21T01:35:36.500Z,19.35
2018-06-21T01:36:36.528Z,18.49
2018-06-21T01:37:36.556Z,19.07
2018-06-21T01:38:36.583Z,19.07
2018-06-21T01:39:36.615Z,19.07
2018-06-21T01:40:36.654Z,19.35
2018-06-21T01:41:36.666Z,19.45
2018-06-21T01:42:36.699Z,19.07
2018-06-21T01:43:36.721Z,19.45
2018-06-21T01:44:36.748Z,19.07
2018-06-21T01:45:36.775Z,18.97
2018-06-21T01:46:36.804Z,19.26
2018-06-21T01:47:36.829Z,19.07
2018-06-21T01:48:36.860Z,19.26
2018-06-21T01:49:36.885Z,19.26
2018-06-21T01:50:36.914Z,19.45
2018-06-21T01:51:36.939Z,19.45
2018-06-21T01:52:36.969Z,19.26
2018-06-21T01:53:36.994Z,19.45
2018-06-21T01:54:37.023Z,19.17
2018-06-21T01:55:37.051Z,19.26
2018-06-21T01:56:37.078Z,19.26
2018-06-21T01:57:37.105Z,19.17
2018-06-21T01:58:37.133Z,19.26
2018-06-21T01:59:37.161Z,18.68
2018-06-21T02:00:37.186Z,19.26
2018-06-21T02:01:37.216Z,19.17
2018-06-21T02:02:37.242Z,19.17
2018-06-21T02:03:37.271Z,19.07
2018-06-21T02:04:37.296Z,19.17
2018-06-21T02:05:37.326Z,19.17
2018-06-21T02:06:37.370Z,18.97
2018-06-21T02:07:37.380Z,19.26
2018-06-21T02:08:37.406Z,19.26
2018-06-21T02:09:37.439Z,19.07
2018-06-21T02:10:37.463Z,18.97
2018-06-21T02:11:37.489Z,19.07
2018-06-21T02:12:37.516Z,19.07
2018-06-21T02:13:37.546Z,18.87
2018-06-21T02:14:37.573Z,18.97
2018-06-21T02:15:37.636Z,18.77
2018-06-21T02:16:37.626Z,18.77
2018-06-21T02:17:37.656Z,18.87
2018-06-21T02:18:37.686Z,18.87
2018-06-21T02:19:37.714Z,18.77
2018-06-21T02:20:37.736Z,18.77
2018-06-21T02:21:37.765Z,18.87
2018-06-21T02:22:37.794Z,18.87
2018-06-21T02:23:37.822Z,18.87
2018-06-21T02:24:37.848Z,18.87
2018-06-21T02:25:37.875Z,18.77
2018-06-21T02:26:37.902Z,19.07
2018-06-21T02:27:37.930Z,18.68
2018-06-21T02:28:37.957Z,18.97
2018-06-21T02:29:37.986Z,18.97
2018-06-21T02:30:38.015Z,18.68
2018-06-21T02:31:38.042Z,18.68
2018-06-21T02:32:38.068Z,18.77
2018-06-21T02:33:38.097Z,18.68
2018-06-21T02:34:38.123Z,18.77
2018-06-21T02:35:38.151Z,18.79
2018-06-21T02:36:38.178Z,18.97
2018-06-21T02:37:38.206Z,18.98
2018-06-21T02:38:38.232Z,18.88
2018-06-21T02:39:38.261Z,18.88
2018-06-21T02:40:38.301Z,18.88
2018-06-21T02:41:38.315Z,19.07
2018-06-21T02:42:38.342Z,18.98
2018-06-21T02:43:38.413Z,18.98
2018-06-21T02:44:38.397Z,18.98
2018-06-21T02:45:38.426Z,18.69
2018-06-21T02:46:38.453Z,18.98
2018-06-21T02:47:38.483Z,18.69
2018-06-21T02:48:38.518Z,18.79
2018-06-21T02:49:38.556Z,18.69
2018-06-21T02:50:38.563Z,18.69
2018-06-21T02:51:38.592Z,18.40
2018-06-21T02:52:38.618Z,18.59
2018-06-21T02:53:38.648Z,18.59
2018-06-21T02:54:38.675Z,18.59
2018-06-21T02:55:38.702Z,18.59
2018-06-21T02:56:38.729Z,18.70
2018-06-21T02:57:38.757Z,18.31
2018-06-21T02:58:38.815Z,18.60
2018-06-21T02:59:38.813Z,18.51
2018-06-21T03:00:38.855Z,18.41
2018-06-21T03:01:38.868Z,18.31
2018-06-21T03:02:38.896Z,18.51
2018-06-21T03:03:38.924Z,18.41
2018-06-21T03:04:38.951Z,18.32
2018-06-21T03:05:39.003Z,17.83
2018-06-21T03:06:39.019Z,17.93
2018-06-21T03:07:39.036Z,18.03
2018-06-21T03:08:39.062Z,18.22
2018-06-21T03:09:39.089Z,18.32
2018-06-21T03:10:39.124Z,18.03
2018-06-21T03:11:39.145Z,17.93
2018-06-21T03:12:39.172Z,17.94
2018-06-21T03:13:39.204Z,17.94
2018-06-21T03:14:39.229Z,17.94
2018-06-21T03:15:39.276Z,17.84
2018-06-21T03:16:39.282Z,17.84
2018-06-21T03:17:39.313Z,17.65
2018-06-21T03:18:39.340Z,17.65
2018-06-21T03:19:39.367Z,17.84
2018-06-21T03:20:39.394Z,17.65
2018-06-21T03:21:39.424Z,17.74
2018-06-21T03:22:39.451Z,17.74
2018-06-21T03:23:39.478Z,17.66
2018-06-21T03:24:39.506Z,17.65
2018-06-21T03:25:39.536Z,17.56
2018-06-21T03:26:39.561Z,17.46
2018-06-21T03:27:39.590Z,17.27
2018-06-21T03:28:39.618Z,17.46
2018-06-21T03:29:39.652Z,17.46
2018-06-21T03:30:39.676Z,17.66
2018-06-21T03:31:39.703Z,17.76
2018-06-21T03:32:39.733Z,17.46
2018-06-21T03:33:39.756Z,17.95
2018-06-21T03:34:39.790Z,17.55
2018-06-21T03:35:39.815Z,17.55
2018-06-21T03:36:39.845Z,17.65
2018-06-21T03:37:39.869Z,17.94
2018-06-21T03:38:39.897Z,18.04
2018-06-21T03:39:39.926Z,17.94
2018-06-21T03:40:39.956Z,17.94
2018-06-21T03:41:39.985Z,17.95
2018-06-21T03:42:40.013Z,18.04
2018-06-21T03:43:40.038Z,17.94
2018-06-21T03:44:40.067Z,17.94
2018-06-21T03:45:40.095Z,18.04
2018-06-21T03:46:40.123Z,18.04
2018-06-21T03:47:40.178Z,18.04
2018-06-21T03:48:40.178Z,18.04
2018-06-21T03:49:40.206Z,18.04
2018-06-21T03:50:40.233Z,18.04
2018-06-21T03:51:40.263Z,18.13
2018-06-21T03:52:40.288Z,17.94
2018-06-21T03:53:40.316Z,17.94
2018-06-21T03:54:40.345Z,18.04
2018-06-21T03:55:40.401Z,18.13
2018-06-21T03:56:40.429Z,18.04
2018-06-21T03:57:40.429Z,18.13
2018-06-21T03:58:40.457Z,17.84
2018-06-21T03:59:40.486Z,17.84
2018-06-21T04:00:40.514Z,17.84
2018-06-21T04:01:40.543Z,17.94
2018-06-21T04:02:40.569Z,18.05
2018-06-21T04:03:40.597Z,17.94
2018-06-21T04:04:40.626Z,17.85
2018-06-21T04:05:40.654Z,17.76
2018-06-21T04:06:40.681Z,17.74
2018-06-21T04:07:40.711Z,17.66
2018-06-21T04:08:40.738Z,17.95
2018-06-21T04:09:40.765Z,17.95
2018-06-21T04:10:40.795Z,17.76
2018-06-21T04:11:40.821Z,17.95
2018-06-21T04:12:40.849Z,17.66
2018-06-21T04:13:40.877Z,17.66
2018-06-21T04:14:40.937Z,17.85
2018-06-21T04:15:40.945Z,17.76
2018-06-21T04:16:40.961Z,17.66
2018-06-21T04:17:40.989Z,17.57
2018-06-21T04:18:41.017Z,17.66
2018-06-21T04:19:41.046Z,17.57
2018-06-21T04:20:41.073Z,17.28
2018-06-21T04:21:41.124Z,17.28
2018-06-21T04:22:41.133Z,17.18
2018-06-21T04:23:41.187Z,17.38
2018-06-21T04:24:41.186Z,17.18
2018-06-21T04:25:41.215Z,17.28
2018-06-21T04:26:41.244Z,17.47
2018-06-21T04:27:41.273Z,17.38
2018-06-21T04:28:41.299Z,17.38
2018-06-21T04:29:41.331Z,17.28
2018-06-21T04:30:41.356Z,17.28
2018-06-21T04:31:41.382Z,17.66
2018-06-21T04:32:41.410Z,17.48
2018-06-21T04:33:41.440Z,17.19
2018-06-21T04:34:41.468Z,17.19
2018-06-21T04:35:41.497Z,17.18
2018-06-21T04:36:41.549Z,16.99
2018-06-21T04:37:41.553Z,17.19
2018-06-21T04:38:41.581Z,17.19
2018-06-21T04:39:41.609Z,17.19
2018-06-21T04:40:41.636Z,17.19
2018-06-21T04:41:41.665Z,16.99
2018-06-21T04:42:41.727Z,17.19
2018-06-21T04:43:41.721Z,17.19
2018-06-21T04:44:41.750Z,17.19
2018-06-21T04:45:41.780Z,16.99
2018-06-21T04:46:41.807Z,17.19
2018-06-21T04:47:41.835Z,17.09
2018-06-21T04:48:41.862Z,17.19
2018-06-21T04:49:41.901Z,17.38
2018-06-21T04:50:41.919Z,17.19
2018-06-21T04:51:41.949Z,17.48
2018-06-21T04:52:42.021Z,17.38
2018-06-21T04:53:42.005Z,17.28
2018-06-21T04:54:42.111Z,17.38
2018-06-21T04:55:42.060Z,17.86
2018-06-21T04:56:42.088Z,17.66
2018-06-21T04:57:42.139Z,17.66
2018-06-21T04:58:42.146Z,17.57
2018-06-21T04:59:42.174Z,17.66
2018-06-21T05:00:42.202Z,17.86
2018-06-21T05:01:42.230Z,17.66
2018-06-21T05:02:42.260Z,17.96
2018-06-21T05:03:42.287Z,17.96
2018-06-21T05:04:42.316Z,17.66
2018-06-21T05:05:42.344Z,17.86
2018-06-21T05:06:42.377Z,17.47
2018-06-21T05:07:42.401Z,17.57
2018-06-21T05:08:42.428Z,17.28
2018-06-21T05:09:42.459Z,17.18
2018-06-21T05:10:42.485Z,17.28
2018-06-21T05:11:42.515Z,17.28
2018-06-21T05:12:42.540Z,17.38
2018-06-21T05:13:42.569Z,17.38
2018-06-21T05:14:42.598Z,17.38
2018-06-21T05:15:42.625Z,17.28
2018-06-21T05:16:42.654Z,17.28
2018-06-21T05:17:42.682Z,17.38
2018-06-21T05:18:42.711Z,17.38
2018-06-21T05:19:42.740Z,17.29
2018-06-21T05:20:42.766Z,17.48
2018-06-21T05:21:42.794Z,17.38
2018-06-21T05:22:42.826Z,17.38
2018-06-21T05:23:42.855Z,17.28
2018-06-21T05:24:42.878Z,17.38
2018-06-21T05:25:42.918Z,17.38
2018-06-21T05:26:42.930Z,17.18
2018-06-21T05:27:42.959Z,17.28
2018-06-21T05:28:42.986Z,17.28
2018-06-21T05:29:43.015Z,17.29
2018-06-21T05:30:43.048Z,17.47
2018-06-21T05:31:43.111Z,17.47
2018-06-21T05:32:43.099Z,17.47
2018-06-21T05:33:43.128Z,17.28
2018-06-21T05:34:43.157Z,17.48
2018-06-21T05:35:43.185Z,17.48
2018-06-21T05:36:43.213Z,17.48
2018-06-21T05:37:43.271Z,17.38
2018-06-21T05:38:43.269Z,17.18
2018-06-21T05:39:43.298Z,17.47
2018-06-21T05:40:43.325Z,17.47
2018-06-21T05:41:43.390Z,17.29
2018-06-21T05:42:43.382Z,17.38
2018-06-21T05:43:43.459Z,17.48
2018-06-21T05:44:43.463Z,17.38
2018-06-21T05:45:43.467Z,17.47
2018-06-21T05:46:43.496Z,17.28
2018-06-21T05:47:43.524Z,17.28
2018-06-21T05:48:43.554Z,17.47
2018-06-21T05:49:43.580Z,17.28
2018-06-21T05:50:43.608Z,17.29
2018-06-21T05:51:43.650Z,17.29
2018-06-21T05:52:43.665Z,17.47
2018-06-21T05:53:43.726Z,17.38
2018-06-21T05:54:43.728Z,17.38
2018-06-21T05:55:43.750Z,17.38
2018-06-21T05:56:43.869Z,17.18
2018-06-21T05:57:43.808Z,17.18
2018-06-21T05:58:43.835Z,17.18
2018-06-21T05:59:43.864Z,17.28
2018-06-21T06:00:43.891Z,17.28
2018-06-21T06:01:43.919Z,17.28
2018-06-21T06:02:43.948Z,17.47
2018-06-21T06:03:43.977Z,17.66
2018-06-21T06:04:44.006Z,17.57
2018-06-21T06:05:44.033Z,17.66
2018-06-21T06:06:44.078Z,17.47
2018-06-21T06:07:44.090Z,17.86
2018-06-21T06:08:44.117Z,17.96
2018-06-21T06:09:44.146Z,17.66
2018-06-21T06:10:44.202Z,17.76
2018-06-21T06:11:44.203Z,17.66
2018-06-21T06:12:44.231Z,17.86
2018-06-21T06:13:44.259Z,17.66
2018-06-21T06:14:44.288Z,17.76
2018-06-21T06:15:44.316Z,17.85
2018-06-21T06:16:44.379Z,17.76
2018-06-21T06:17:44.372Z,17.66
2018-06-21T06:18:44.400Z,17.85
2018-06-21T06:19:44.429Z,17.95
2018-06-21T06:20:44.462Z,17.95
2018-06-21T06:21:44.489Z,18.15
2018-06-21T06:22:44.527Z,17.95
2018-06-21T06:23:44.542Z,17.85
2018-06-21T06:24:44.572Z,17.95
2018-06-21T06:25:44.602Z,18.05
2018-06-21T06:26:44.627Z,18.05
2018-06-21T06:27:44.685Z,18.05
2018-06-21T06:28:44.747Z,18.05
2018-06-21T06:29:44.710Z,18.05
2018-06-21T06:30:44.741Z,18.05
2018-06-21T06:31:44.767Z,18.05
2018-06-21T06:32:44.797Z,17.95
2018-06-21T06:33:44.824Z,18.05
2018-06-21T06:34:44.953Z,18.05
2018-06-21T06:35:44.884Z,18.05
2018-06-21T06:36:44.910Z,17.84
2018-06-21T06:37:44.935Z,17.94
2018-06-21T06:38:44.964Z,18.05
2018-06-21T06:39:44.992Z,18.15
2018-06-21T06:40:45.030Z,17.94
2018-06-21T06:41:45.049Z,18.04
2018-06-21T06:42:45.119Z,17.94
2018-06-21T06:43:45.105Z,17.94
2018-06-21T06:44:45.143Z,17.94
2018-06-21T06:45:45.162Z,17.94
2018-06-21T06:46:45.189Z,18.04
2018-06-21T06:47:45.218Z,18.04
2018-06-21T06:48:45.245Z,17.94
2018-06-21T06:49:45.273Z,17.94
2018-06-21T06:50:45.301Z,18.04
2018-06-21T06:51:45.329Z,17.94
2018-06-21T06:52:45.357Z,17.94
2018-06-21T06:53:45.386Z,17.94
2018-06-21T06:54:45.483Z,18.13
2018-06-21T06:55:45.443Z,17.94
2018-06-21T06:56:45.469Z,17.94
2018-06-21T06:57:45.515Z,18.04
2018-06-21T06:58:45.551Z,17.94
2018-06-21T06:59:45.555Z,17.94
2018-06-21T07:00:45.582Z,17.84
2018-06-21T07:01:45.611Z,17.94
2018-06-21T07:02:45.639Z,18.13
2018-06-21T07:03:45.669Z,18.04
2018-06-21T07:04:45.695Z,17.94
2018-06-21T07:05:45.769Z,17.94
2018-06-21T07:06:45.751Z,17.93
2018-06-21T07:07:45.779Z,18.13
2018-06-21T07:08:45.807Z,17.94
2018-06-21T07:09:45.835Z,18.13
2018-06-21T07:10:45.884Z,18.04
2018-06-21T07:11:45.891Z,18.04
2018-06-21T07:12:45.919Z,17.94
2018-06-21T07:13:45.947Z,17.94
2018-06-21T07:14:45.977Z,17.93
2018-06-21T07:15:46.002Z,18.03
2018-06-21T07:16:46.037Z,17.93
2018-06-21T07:17:46.058Z,17.54
2018-06-21T07:18:46.087Z,17.64
2018-06-21T07:19:46.119Z,17.54
2018-06-21T07:20:46.142Z,17.54
2018-06-21T07:21:46.173Z,17.83
2018-06-21T07:22:46.213Z,17.64
2018-06-21T07:23:46.226Z,17.54
2018-06-21T07:24:46.254Z,17.54
2018-06-21T07:25:46.282Z,17.74
2018-06-21T07:26:46.311Z,17.64
2018-06-21T07:27:46.338Z,17.83
2018-06-21T07:28:46.366Z,17.83
2018-06-21T07:29:46.395Z,18.03
2018-06-21T07:30:46.424Z,17.93
2018-06-21T07:31:46.450Z,17.93
2018-06-21T07:32:46.478Z,17.83
2018-06-21T07:33:46.506Z,17.93
2018-06-21T07:34:46.535Z,18.03
2018-06-21T07:35:46.562Z,17.93
2018-06-21T07:36:46.590Z,17.93
2018-06-21T07:37:46.618Z,17.93
2018-06-21T07:38:46.646Z,17.93
2018-06-21T07:39:46.681Z,17.93
2018-06-21T07:40:46.701Z,17.83
2018-06-21T07:41:46.730Z,17.63
2018-06-21T07:42:46.758Z,17.93
2018-06-21T07:43:46.785Z,18.03
2018-06-21T07:44:46.859Z,18.02
2018-06-21T07:45:46.841Z,18.12
2018-06-21T07:46:46.905Z,17.92
2018-06-21T07:47:46.897Z,17.92
2018-06-21T07:48:46.925Z,18.02
2018-06-21T07:49:46.952Z,17.92
2018-06-21T07:50:46.981Z,17.92
2018-06-21T07:51:47.009Z,17.92
2018-06-21T07:52:47.036Z,17.92
2018-06-21T07:53:47.086Z,17.92
2018-06-21T07:54:47.093Z,18.02
2018-06-21T07:55:47.120Z,17.92
2018-06-21T07:56:47.177Z,17.92
2018-06-21T07:57:47.178Z,17.92
2018-06-21T07:58:47.203Z,17.92
2018-06-21T07:59:47.231Z,18.12
2018-06-21T08:00:47.258Z,17.92
2018-06-21T08:01:47.286Z,17.92
2018-06-21T08:02:47.314Z,17.92
2018-06-21T08:03:47.346Z,18.02
2018-06-21T08:04:47.373Z,17.92
2018-06-21T08:05:47.397Z,18.12
2018-06-21T08:06:47.426Z,18.02
2018-06-21T08:07:47.470Z,18.02
2018-06-21T08:08:47.480Z,17.92
2018-06-21T08:09:47.512Z,18.02
2018-06-21T08:10:47.537Z,17.92
2018-06-21T08:11:47.565Z,17.92
2018-06-21T08:12:47.611Z,17.92
2018-06-21T08:13:47.649Z,17.92
2018-06-21T08:14:47.648Z,17.92
2018-06-21T08:15:47.676Z,17.92
2018-06-21T08:16:47.703Z,17.92
2018-06-21T08:17:47.771Z,18.02
2018-06-21T08:18:47.759Z,18.02
2018-06-21T08:19:47.787Z,17.92
2018-06-21T08:20:47.842Z,17.92
2018-06-21T08:21:47.843Z,17.63
2018-06-21T08:22:47.871Z,17.64
2018-06-21T08:23:47.899Z,17.54
2018-06-21T08:24:47.926Z,17.63
2018-06-21T08:25:47.957Z,17.63
2018-06-21T08:26:48.034Z,17.73
2018-06-21T08:27:48.012Z,17.63
2018-06-21T08:28:48.040Z,17.63
2018-06-21T08:29:48.065Z,17.73
2018-06-21T08:30:48.093Z,17.63
2018-06-21T08:31:48.121Z,17.63
2018-06-21T08:32:48.148Z,17.63
2018-06-21T08:33:48.176Z,17.54
2018-06-21T08:34:48.204Z,17.63
2018-06-21T08:35:48.233Z,17.54
2018-06-21T08:36:48.264Z,17.63
2018-06-21T08:37:48.288Z,17.73
2018-06-21T08:38:48.389Z,17.63
2018-06-21T08:39:48.344Z,17.63
2018-06-21T08:40:48.371Z,17.63
2018-06-21T08:41:48.399Z,17.54
2018-06-21T08:42:48.427Z,17.54
2018-06-21T08:43:48.455Z,17.64
2018-06-21T08:44:48.482Z,17.73
2018-06-21T08:45:48.550Z,17.73
2018-06-21T08:46:48.538Z,17.83
2018-06-21T08:47:48.565Z,17.73
2018-06-21T08:48:48.594Z,17.63
2018-06-21T08:49:48.621Z,17.73
2018-06-21T08:50:48.649Z,17.63
2018-06-21T08:51:48.703Z,17.54
2018-06-21T08:52:48.704Z,17.63
2018-06-21T08:53:48.733Z,17.34
2018-06-21T08:54:48.768Z,17.73
2018-06-21T08:55:48.789Z,17.63
2018-06-21T08:56:48.816Z,17.73
2018-06-21T08:57:48.844Z,17.54
2018-06-21T08:58:48.872Z,17.54
2018-06-21T08:59:48.917Z,17.54
2018-06-21T09:00:48.926Z,17.54
2018-06-21T09:01:48.954Z,17.54
2018-06-21T09:02:48.996Z,17.44
2018-06-21T09:03:49.031Z,17.44
2018-06-21T09:04:49.037Z,17.14
2018-06-21T09:05:49.073Z,17.44
2018-06-21T09:06:49.135Z,17.14
2018-06-21T09:07:49.121Z,17.24
2018-06-21T09:08:49.148Z,17.24
2018-06-21T09:09:49.213Z,17.24
2018-06-21T09:10:49.236Z,17.14
2018-06-21T09:11:49.232Z,17.44
2018-06-21T09:12:49.262Z,17.24
2018-06-21T09:13:49.287Z,17.44
2018-06-21T09:14:49.314Z,17.34
2018-06-21T09:15:49.344Z,17.24
2018-06-21T09:16:49.370Z,17.34
2018-06-21T09:17:49.401Z,17.44
2018-06-21T09:18:49.426Z,17.34
2018-06-21T09:19:49.475Z,17.44
2018-06-21T09:20:49.482Z,17.54
2018-06-21T09:21:49.512Z,17.54
2018-06-21T09:22:49.537Z,17.54
2018-06-21T09:23:49.566Z,17.54
2018-06-21T09:24:49.594Z,17.44
2018-06-21T09:25:49.621Z,17.54
2018-06-21T09:26:49.648Z,17.16
2018-06-21T09:27:49.677Z,17.14
2018-06-21T09:28:49.704Z,17.05
2018-06-21T09:29:49.732Z,16.96
2018-06-21T09:30:49.760Z,17.14
2018-06-21T09:31:49.788Z,17.14
2018-06-21T09:32:49.816Z,16.96
2018-06-21T09:33:49.945Z,17.25
2018-06-21T09:34:49.873Z,17.35
2018-06-21T09:35:49.901Z,17.35
2018-06-21T09:36:49.927Z,17.25
2018-06-21T09:37:49.955Z,17.16
2018-06-21T09:38:49.982Z,17.35
2018-06-21T09:39:50.011Z,17.25
2018-06-21T09:40:50.042Z,17.24
2018-06-21T09:41:50.092Z,17.14
2018-06-21T09:42:50.097Z,17.16
2018-06-21T09:44:03.405Z,16.86
2018-06-21T09:44:50.151Z,17.35
2018-06-21T09:45:50.177Z,17.44
2018-06-21T09:46:50.205Z,17.06
2018-06-21T09:47:50.233Z,17.06
2018-06-21T09:48:50.260Z,17.06
2018-06-21T09:49:50.309Z,16.96
2018-06-21T09:50:50.316Z,17.06
2018-06-21T09:51:50.344Z,17.05
2018-06-21T09:52:50.371Z,16.86
2018-06-21T09:53:50.399Z,16.86
2018-06-21T09:54:50.464Z,16.77
2018-06-21T09:55:50.459Z,16.96
2018-06-21T09:56:50.483Z,16.86
2018-06-21T09:57:50.555Z,16.67
2018-06-21T09:58:50.539Z,16.67
2018-06-21T09:59:50.567Z,16.67
2018-06-21T10:00:50.595Z,16.86
2018-06-21T10:01:50.641Z,16.86
2018-06-21T10:02:50.695Z,16.86
2018-06-21T10:03:50.678Z,16.86
2018-06-21T10:04:50.706Z,16.86
2018-06-21T10:05:50.734Z,16.77
2018-06-21T10:06:50.766Z,16.86
2018-06-21T10:07:50.791Z,16.86
2018-06-21T10:08:50.818Z,16.86
2018-06-21T10:09:50.847Z,16.86
2018-06-21T10:10:50.873Z,16.86
2018-06-21T10:11:50.901Z,16.86
2018-06-21T10:12:50.930Z,16.67
2018-06-21T10:13:50.956Z,16.86
2018-06-21T10:14:50.985Z,16.86
2018-06-21T10:15:51.054Z,16.77
2018-06-21T10:16:51.039Z,16.57
2018-06-21T10:17:51.068Z,16.67
2018-06-21T10:18:51.127Z,16.57
2018-06-21T10:19:51.180Z,16.77
2018-06-21T10:20:51.152Z,16.57
2018-06-21T10:21:51.180Z,16.67
2018-06-21T10:22:51.207Z,16.67
2018-06-21T10:23:51.279Z,16.67
2018-06-21T10:24:51.265Z,16.67
2018-06-21T10:25:51.293Z,16.67
2018-06-21T10:26:51.319Z,16.67
2018-06-21T10:27:51.347Z,16.67
2018-06-21T10:28:51.374Z,16.77
2018-06-21T10:29:51.402Z,16.67
2018-06-21T10:30:51.430Z,16.67
2018-06-21T10:31:51.464Z,16.67
2018-06-21T10:32:51.486Z,16.67
2018-06-21T10:33:51.514Z,16.86
2018-06-21T10:34:51.541Z,16.86
2018-06-21T10:35:51.600Z,16.77
2018-06-21T10:36:51.599Z,16.77
2018-06-21T10:37:51.627Z,16.67
2018-06-21T10:38:51.653Z,16.86
2018-06-21T10:39:51.681Z,16.67
2018-06-21T10:40:51.709Z,16.77
2018-06-21T10:41:51.737Z,16.67
2018-06-21T10:42:51.766Z,16.67
2018-06-21T10:43:51.793Z,16.86
2018-06-21T10:44:51.820Z,16.77
2018-06-21T10:45:51.869Z,16.67
2018-06-21T10:46:51.901Z,16.67
2018-06-21T10:47:51.912Z,16.86
2018-06-21T10:48:51.932Z,16.67
2018-06-21T10:49:51.959Z,16.57
2018-06-21T10:50:51.988Z,16.67
2018-06-21T10:51:52.016Z,16.67
2018-06-21T10:52:52.044Z,16.67
2018-06-21T10:53:52.071Z,16.86
2018-06-21T10:54:52.100Z,16.77
2018-06-21T10:55:52.134Z,16.77
2018-06-21T10:56:52.155Z,16.77
2018-06-21T10:57:52.183Z,16.77
2018-06-21T10:58:52.212Z,16.67
2018-06-21T10:59:52.240Z,16.77
2018-06-21T11:00:52.266Z,16.77
2018-06-21T11:01:52.295Z,16.77
2018-06-21T11:02:52.323Z,16.67
2018-06-21T11:03:52.352Z,16.77
2018-06-21T11:04:52.379Z,16.77
2018-06-21T11:05:52.408Z,16.86
2018-06-21T11:06:52.435Z,16.67
2018-06-21T11:07:52.463Z,16.67
2018-06-21T11:08:52.490Z,16.67
2018-06-21T11:09:52.518Z,16.48
2018-06-21T11:10:52.546Z,16.67
2018-06-21T11:11:52.574Z,16.77
2018-06-21T11:12:52.601Z,16.67
2018-06-21T11:13:52.629Z,16.67
2018-06-21T11:14:52.698Z,16.67
2018-06-21T11:15:52.685Z,16.67
2018-06-21T11:16:52.720Z,16.67
2018-06-21T11:17:52.741Z,16.48
2018-06-21T11:18:52.793Z,16.67
2018-06-21T11:19:52.799Z,16.67
2018-06-21T11:20:52.823Z,16.77
2018-06-21T11:21:52.852Z,16.77
2018-06-21T11:22:52.911Z,16.86
2018-06-21T11:23:52.908Z,16.77
2018-06-21T11:24:52.935Z,16.77
2018-06-21T11:25:52.963Z,16.86
2018-06-21T11:26:52.992Z,16.67
2018-06-21T11:27:53.118Z,16.77
2018-06-21T11:28:53.047Z,16.86
2018-06-21T11:29:53.076Z,16.77
2018-06-21T11:30:53.103Z,16.86
2018-06-21T11:31:53.134Z,16.86
2018-06-21T11:32:53.158Z,16.77
2018-06-21T11:33:53.187Z,16.77
2018-06-21T11:34:53.215Z,16.67
2018-06-21T11:35:53.246Z,16.86
2018-06-21T11:36:53.270Z,16.77
2018-06-21T11:37:53.298Z,16.86
2018-06-21T11:38:53.330Z,16.86
2018-06-21T11:39:53.355Z,16.67
2018-06-21T11:40:53.398Z,16.96
2018-06-21T11:41:53.410Z,16.77
2018-06-21T11:42:53.438Z,16.67
2018-06-21T11:43:53.466Z,16.86
2018-06-21T11:44:53.494Z,16.86
2018-06-21T11:45:53.522Z,16.96
2018-06-21T11:46:53.550Z,16.67
2018-06-21T11:47:53.581Z,16.67
2018-06-21T11:48:53.606Z,16.96
2018-06-21T11:49:53.634Z,16.67
2018-06-21T11:50:53.661Z,16.67
2018-06-21T11:51:53.689Z,16.96
2018-06-21T11:52:53.717Z,16.86
2018-06-21T11:53:53.746Z,16.86
2018-06-21T11:54:53.773Z,16.77
2018-06-21T11:55:53.805Z,16.86
2018-06-21T11:56:53.829Z,16.86
2018-06-21T11:57:53.856Z,16.86
2018-06-21T11:58:53.885Z,16.96
2018-06-21T11:59:53.913Z,16.77
2018-06-21T12:00:53.940Z,16.96
2018-06-21T12:01:53.994Z,16.67
2018-06-21T12:02:53.998Z,16.86
2018-06-21T12:03:54.027Z,16.96
2018-06-21T12:04:54.051Z,16.86
2018-06-21T12:05:54.080Z,16.67
2018-06-21T12:06:54.129Z,16.96
2018-06-21T12:07:54.140Z,16.86
2018-06-21T12:08:54.164Z,16.96
2018-06-21T12:09:54.192Z,16.86
2018-06-21T12:10:54.221Z,16.86
2018-06-21T12:11:54.250Z,16.67
2018-06-21T12:12:54.275Z,16.77
2018-06-21T12:13:54.306Z,16.86
2018-06-21T12:14:54.332Z,16.67
2018-06-21T12:15:54.359Z,16.86
2018-06-21T12:16:54.387Z,16.86
2018-06-21T12:17:54.447Z,16.77
2018-06-21T12:18:54.443Z,16.86
2018-06-21T12:19:54.470Z,16.67
2018-06-21T12:20:54.499Z,16.77
2018-06-21T12:21:54.526Z,16.67
2018-06-21T12:22:54.554Z,16.67
2018-06-21T12:23:54.582Z,16.57
2018-06-21T12:24:54.612Z,16.77
2018-06-21T12:25:54.647Z,16.57
2018-06-21T12:26:54.666Z,16.67
2018-06-21T12:27:54.698Z,16.57
2018-06-21T12:28:54.739Z,16.57
2018-06-21T12:29:54.749Z,16.67
2018-06-21T12:30:54.777Z,16.77
2018-06-21T12:31:54.858Z,16.77
2018-06-21T12:32:54.833Z,16.77
2018-06-21T12:33:54.863Z,16.77
2018-06-21T12:34:54.888Z,16.67
2018-06-21T12:35:54.919Z,16.77
2018-06-21T12:36:54.944Z,16.77
2018-06-21T12:37:54.973Z,16.77
2018-06-21T12:38:55.006Z,16.67
2018-06-21T12:39:55.029Z,16.67
2018-06-21T12:40:55.056Z,16.77
2018-06-21T12:41:55.084Z,16.86
2018-06-21T12:42:55.138Z,16.77
2018-06-21T12:43:55.140Z,16.86
2018-06-21T12:44:55.167Z,16.67
2018-06-21T12:45:55.196Z,16.77
2018-06-21T12:46:55.223Z,16.77
2018-06-21T12:47:55.252Z,16.77
2018-06-21T12:48:55.279Z,16.77
2018-06-21T12:49:55.307Z,16.86
2018-06-21T12:50:55.336Z,16.77
2018-06-21T12:51:55.363Z,16.77
2018-06-21T12:52:55.391Z,16.77